sensor_id;sensor_type;location;lat;lon;timestamp;temperature;humidity
43808;DHT22;29438;50.664;10.098;2023-01-29T00:01:16;-3273.40;85.00
43808;DHT22;29438;50.664;10.098;2023-01-29T00:03:42;-3273.40;85.70
43808;DHT22;29438;50.664;10.098;2023-01-29T00:06:08;-3273.40;86.20
43808;DHT22;29438;50.664;10.098;2023-01-29T00:08:35;-3273.50;85.30
43808;DHT22;29438;50.664;10.098;2023-01-29T00:11:05;-3273.40;85.00
43808;DHT22;29438;50.664;10.098;2023-01-29T00:13:31;-3273.40;85.20
43808;DHT22;29438;50.664;10.098;2023-01-29T00:15:59;-3273.40;85.30
43808;DHT22;29438;50.664;10.098;2023-01-29T00:18:25;-3273.40;85.30
43808;DHT22;29438;50.664;10.098;2023-01-29T00:20:51;-3273.40;85.40
43808;DHT22;29438;50.664;10.098;2023-01-29T00:23:18;-3273.50;85.50
43808;DHT22;29438;50.664;10.098;2023-01-29T00:25:44;-3273.60;85.80
43808;DHT22;29438;50.664;10.098;2023-01-29T00:28:10;-3273.60;85.70
43808;DHT22;29438;50.664;10.098;2023-01-29T00:30:36;-3273.60;85.70
43808;DHT22;29438;50.664;10.098;2023-01-29T00:33:02;-3273.60;85.50
43808;DHT22;29438;50.664;10.098;2023-01-29T00:35:28;-3273.50;85.40
43808;DHT22;29438;50.664;10.098;2023-01-29T00:37:57;-3273.50;85.20
43808;DHT22;29438;50.664;10.098;2023-01-29T00:40:24;-3273.50;85.40
43808;DHT22;29438;50.664;10.098;2023-01-29T00:42:49;-3273.50;85.50
43808;DHT22;29438;50.664;10.098;2023-01-29T00:45:34;-3273.50;85.60
43808;DHT22;29438;50.664;10.098;2023-01-29T00:48:03;-3273.50;85.80
43808;DHT22;29438;50.664;10.098;2023-01-29T00:50:29;-3273.50;86.10
43808;DHT22;29438;50.664;10.098;2023-01-29T00:52:55;-3273.50;86.20
43808;DHT22;29438;50.664;10.098;2023-01-29T00:55:21;-3273.40;85.90
43808;DHT22;29438;50.664;10.098;2023-01-29T00:57:47;-3273.30;85.70
43808;DHT22;29438;50.664;10.098;2023-01-29T01:00:15;-3273.30;86.00
43808;DHT22;29438;50.664;10.098;2023-01-29T01:02:41;-3273.30;86.00
43808;DHT22;29438;50.664;10.098;2023-01-29T01:05:25;-3273.30;86.10
43808;DHT22;29438;50.664;10.098;2023-01-29T01:07:53;-3273.20;86.10
43808;DHT22;29438;50.664;10.098;2023-01-29T01:10:21;-3273.00;86.40
43808;DHT22;29438;50.664;10.098;2023-01-29T01:12:54;-3272.90;86.70
43808;DHT22;29438;50.664;10.098;2023-01-29T01:15:22;-3272.70;86.70
43808;DHT22;29438;50.664;10.098;2023-01-29T01:17:54;-3272.50;86.90
43808;DHT22;29438;50.664;10.098;2023-01-29T01:20:20;-3272.30;87.10
43808;DHT22;29438;50.664;10.098;2023-01-29T01:22:46;-3272.20;87.30
43808;DHT22;29438;50.664;10.098;2023-01-29T01:25:12;-3272.10;87.50
43808;DHT22;29438;50.664;10.098;2023-01-29T01:27:37;-3271.90;87.70
43808;DHT22;29438;50.664;10.098;2023-01-29T01:30:10;-3271.80;87.90
43808;DHT22;29438;50.664;10.098;2023-01-29T01:32:37;-3271.60;87.90
43808;DHT22;29438;50.664;10.098;2023-01-29T01:35:02;-3271.50;88.00
43808;DHT22;29438;50.664;10.098;2023-01-29T01:37:28;-3271.20;88.00
43808;DHT22;29438;50.664;10.098;2023-01-29T01:39:54;-3271.20;88.10
43808;DHT22;29438;50.664;10.098;2023-01-29T01:42:26;-3271.10;88.30
43808;DHT22;29438;50.664;10.098;2023-01-29T01:45:01;-3270.90;88.30
43808;DHT22;29438;50.664;10.098;2023-01-29T01:47:50;-3270.80;88.40
43808;DHT22;29438;50.664;10.098;2023-01-29T01:50:23;-3270.80;88.60
43808;DHT22;29438;50.664;10.098;2023-01-29T01:52:53;-3270.60;88.60
43808;DHT22;29438;50.664;10.098;2023-01-29T01:55:22;-3270.70;88.90
43808;DHT22;29438;50.664;10.098;2023-01-29T01:57:52;-3270.60;89.00
43808;DHT22;29438;50.664;10.098;2023-01-29T02:00:20;-3270.60;89.10
43808;DHT22;29438;50.664;10.098;2023-01-29T02:02:47;-3270.60;89.20
43808;DHT22;29438;50.664;10.098;2023-01-29T02:05:33;-3270.50;89.20
43808;DHT22;29438;50.664;10.098;2023-01-29T02:08:25;-3270.40;89.10
43808;DHT22;29438;50.664;10.098;2023-01-29T02:11:11;-3270.10;89.00
43808;DHT22;29438;50.664;10.098;2023-01-29T02:13:37;-3270.10;89.10
43808;DHT22;29438;50.664;10.098;2023-01-29T02:16:03;-3270.10;89.10
43808;DHT22;29438;50.664;10.098;2023-01-29T02:18:28;-3270.10;89.20
43808;DHT22;29438;50.664;10.098;2023-01-29T02:23:53;-3270.00;89.30
43808;DHT22;29438;50.664;10.098;2023-01-29T02:26:48;-3270.00;89.40
43808;DHT22;29438;50.664;10.098;2023-01-29T02:46:15;-3269.80;89.60
43808;DHT22;29438;50.664;10.098;2023-01-29T02:48:56;-3269.90;89.70
43808;DHT22;29438;50.664;10.098;2023-01-29T02:51:36;-3269.90;89.80
43808;DHT22;29438;50.664;10.098;2023-01-29T02:54:26;-3270.10;89.90
43808;DHT22;29438;50.664;10.098;2023-01-29T02:56:57;-3270.20;89.90
43808;DHT22;29438;50.664;10.098;2023-01-29T03:00:11;-3270.20;89.70
43808;DHT22;29438;50.664;10.098;2023-01-29T03:02:19;-3270.20;89.60
43808;DHT22;29438;50.664;10.098;2023-01-29T03:04:51;-3270.30;89.30
43808;DHT22;29438;50.664;10.098;2023-01-29T03:07:24;-3270.20;89.20
43808;DHT22;29438;50.664;10.098;2023-01-29T03:10:21;-3270.20;89.00
43808;DHT22;29438;50.664;10.098;2023-01-29T03:12:56;-3270.10;89.00
43808;DHT22;29438;50.664;10.098;2023-01-29T03:15:28;-3270.00;89.00
43808;DHT22;29438;50.664;10.098;2023-01-29T03:18:22;-3269.90;89.00
43808;DHT22;29438;50.664;10.098;2023-01-29T03:20:52;-3269.90;89.00
43808;DHT22;29438;50.664;10.098;2023-01-29T03:23:21;-3269.80;89.10
43808;DHT22;29438;50.664;10.098;2023-01-29T03:25:53;-3269.80;89.20
43808;DHT22;29438;50.664;10.098;2023-01-29T03:28:42;-3269.70;89.20
43808;DHT22;29438;50.664;10.098;2023-01-29T03:31:28;-3269.60;89.10
43808;DHT22;29438;50.664;10.098;2023-01-29T03:34:15;-3269.40;89.20
43808;DHT22;29438;50.664;10.098;2023-01-29T03:36:55;-3269.30;89.20
43808;DHT22;29438;50.664;10.098;2023-01-29T03:39:24;-3269.30;89.20
43808;DHT22;29438;50.664;10.098;2023-01-29T03:44:37;-3269.20;89.30
43808;DHT22;29438;50.664;10.098;2023-01-29T03:47:24;-3269.10;89.40
43808;DHT22;29438;50.664;10.098;2023-01-29T03:49:56;-3269.10;89.50
43808;DHT22;29438;50.664;10.098;2023-01-29T03:52:37;-3268.90;89.40
43808;DHT22;29438;50.664;10.098;2023-01-29T04:00:30;-3268.90;89.70
43808;DHT22;29438;50.664;10.098;2023-01-29T04:03:14;-3269.00;89.80
43808;DHT22;29438;50.664;10.098;2023-01-29T04:05:50;-3268.90;89.90
43808;DHT22;29438;50.664;10.098;2023-01-29T04:08:23;-3269.00;90.00
43808;DHT22;29438;50.664;10.098;2023-01-29T04:10:51;-3269.00;90.00
43808;DHT22;29438;50.664;10.098;2023-01-29T04:13:19;-3268.90;89.90
43808;DHT22;29438;50.664;10.098;2023-01-29T04:15:49;-3268.80;89.90
43808;DHT22;29438;50.664;10.098;2023-01-29T04:18:17;-3268.90;89.90
43808;DHT22;29438;50.664;10.098;2023-01-29T04:20:43;-3268.90;90.00
43808;DHT22;29438;50.664;10.098;2023-01-29T04:23:25;-3268.90;90.00
43808;DHT22;29438;50.664;10.098;2023-01-29T04:31:40;-3268.70;90.00
43808;DHT22;29438;50.664;10.098;2023-01-29T04:34:20;-3268.60;90.00
43808;DHT22;29438;50.664;10.098;2023-01-29T04:39:42;-3268.60;90.00
43808;DHT22;29438;50.664;10.098;2023-01-29T04:42:29;-3268.60;90.00
43808;DHT22;29438;50.664;10.098;2023-01-29T04:45:00;-3268.60;90.10
43808;DHT22;29438;50.664;10.098;2023-01-29T04:47:33;-3268.50;90.10
43808;DHT22;29438;50.664;10.098;2023-01-29T04:50:17;-3268.50;90.10
43808;DHT22;29438;50.664;10.098;2023-01-29T04:55:45;-3268.70;90.20
43808;DHT22;29438;50.664;10.098;2023-01-29T05:01:10;-3268.80;90.40
43808;DHT22;29438;50.664;10.098;2023-01-29T05:03:40;-3268.90;90.50
43808;DHT22;29438;50.664;10.098;2023-01-29T05:06:08;-3269.00;90.50
43808;DHT22;29438;50.664;10.098;2023-01-29T05:08:36;-3269.00;90.40
43808;DHT22;29438;50.664;10.098;2023-01-29T05:11:03;-3269.10;90.30
43808;DHT22;29438;50.664;10.098;2023-01-29T05:13:30;-3269.20;90.30
43808;DHT22;29438;50.664;10.098;2023-01-29T05:16:03;-3269.40;90.20
43808;DHT22;29438;50.664;10.098;2023-01-29T05:18:31;-3269.40;90.10
43808;DHT22;29438;50.664;10.098;2023-01-29T05:20:57;-3269.30;89.90
43808;DHT22;29438;50.664;10.098;2023-01-29T05:23:24;-3269.20;89.70
43808;DHT22;29438;50.664;10.098;2023-01-29T05:25:50;-3269.30;89.70
43808;DHT22;29438;50.664;10.098;2023-01-29T05:28:16;-3269.30;89.70
43808;DHT22;29438;50.664;10.098;2023-01-29T05:30:44;-3269.40;89.80
43808;DHT22;29438;50.664;10.098;2023-01-29T05:35:44;-3269.40;89.70
43808;DHT22;29438;50.664;10.098;2023-01-29T05:38:10;-3269.50;89.80
43808;DHT22;29438;50.664;10.098;2023-01-29T05:40:36;-3269.60;89.70
43808;DHT22;29438;50.664;10.098;2023-01-29T05:43:02;-3269.50;89.60
43808;DHT22;29438;50.664;10.098;2023-01-29T05:45:28;-3269.60;89.70
43808;DHT22;29438;50.664;10.098;2023-01-29T05:47:57;-3269.70;89.70
43808;DHT22;29438;50.664;10.098;2023-01-29T05:50:24;-3269.80;89.70
43808;DHT22;29438;50.664;10.098;2023-01-29T05:52:56;-3269.80;89.60
43808;DHT22;29438;50.664;10.098;2023-01-29T05:55:21;-3269.90;89.70
43808;DHT22;29438;50.664;10.098;2023-01-29T05:57:47;-3269.90;89.70
43808;DHT22;29438;50.664;10.098;2023-01-29T06:00:13;-3270.00;89.60
43808;DHT22;29438;50.664;10.098;2023-01-29T06:02:38;-3270.10;89.70
43808;DHT22;29438;50.664;10.098;2023-01-29T06:05:04;-3270.20;89.70
43808;DHT22;29438;50.664;10.098;2023-01-29T06:07:30;-3270.30;89.70
43808;DHT22;29438;50.664;10.098;2023-01-29T06:09:56;-3270.30;89.60
43808;DHT22;29438;50.664;10.098;2023-01-29T06:12:21;-3270.30;89.50
43808;DHT22;29438;50.664;10.098;2023-01-29T06:14:47;-3270.20;89.40
43808;DHT22;29438;50.664;10.098;2023-01-29T06:17:12;-3270.20;89.40
43808;DHT22;29438;50.664;10.098;2023-01-29T06:19:38;-3270.40;89.50
43808;DHT22;29438;50.664;10.098;2023-01-29T06:22:03;-3270.40;89.50
43808;DHT22;29438;50.664;10.098;2023-01-29T06:24:29;-3270.50;89.50
43808;DHT22;29438;50.664;10.098;2023-01-29T06:26:54;-3270.50;89.40
43808;DHT22;29438;50.664;10.098;2023-01-29T06:29:20;-3270.40;89.30
43808;DHT22;29438;50.664;10.098;2023-01-29T06:31:45;-3270.40;89.40
43808;DHT22;29438;50.664;10.098;2023-01-29T06:34:11;-3270.40;89.40
43808;DHT22;29438;50.664;10.098;2023-01-29T06:36:36;-3270.40;89.50
43808;DHT22;29438;50.664;10.098;2023-01-29T06:39:02;-3270.20;89.40
43808;DHT22;29438;50.664;10.098;2023-01-29T06:41:28;-3270.10;89.40
43808;DHT22;29438;50.664;10.098;2023-01-29T06:43:54;-3270.10;89.50
43808;DHT22;29438;50.664;10.098;2023-01-29T06:46:19;-3270.10;89.60
43808;DHT22;29438;50.664;10.098;2023-01-29T06:48:45;-3270.10;89.70
43808;DHT22;29438;50.664;10.098;2023-01-29T06:51:11;-3270.20;89.70
43808;DHT22;29438;50.664;10.098;2023-01-29T06:53:37;-3270.10;89.80
43808;DHT22;29438;50.664;10.098;2023-01-29T06:56:04;-3270.00;89.80
43808;DHT22;29438;50.664;10.098;2023-01-29T06:58:30;-3270.10;89.90
43808;DHT22;29438;50.664;10.098;2023-01-29T07:01:06;-3270.20;90.00
43808;DHT22;29438;50.664;10.098;2023-01-29T07:03:32;-3270.10;89.90
43808;DHT22;29438;50.664;10.098;2023-01-29T07:05:57;-3270.10;89.90
43808;DHT22;29438;50.664;10.098;2023-01-29T07:08:23;-3270.20;89.90
43808;DHT22;29438;50.664;10.098;2023-01-29T07:10:49;-3270.20;89.90
43808;DHT22;29438;50.664;10.098;2023-01-29T07:13:14;-3270.20;89.80
43808;DHT22;29438;50.664;10.098;2023-01-29T07:15:40;-3270.20;89.80
43808;DHT22;29438;50.664;10.098;2023-01-29T07:18:06;-3270.20;89.90
43808;DHT22;29438;50.664;10.098;2023-01-29T07:20:37;-3270.40;90.00
43808;DHT22;29438;50.664;10.098;2023-01-29T07:23:03;-3270.80;90.40
43808;DHT22;29438;50.664;10.098;2023-01-29T07:25:29;-3271.00;90.50
43808;DHT22;29438;50.664;10.098;2023-01-29T07:27:55;-3271.00;90.20
43808;DHT22;29438;50.664;10.098;2023-01-29T07:30:20;-3270.90;89.80
43808;DHT22;29438;50.664;10.098;2023-01-29T07:32:46;-3270.90;89.60
43808;DHT22;29438;50.664;10.098;2023-01-29T07:35:12;-3270.90;89.20
43808;DHT22;29438;50.664;10.098;2023-01-29T07:37:37;-3271.00;89.10
43808;DHT22;29438;50.664;10.098;2023-01-29T07:40:03;-3271.00;89.00
43808;DHT22;29438;50.664;10.098;2023-01-29T07:42:34;-3271.10;89.00
43808;DHT22;29438;50.664;10.098;2023-01-29T07:45:00;-3271.20;88.90
43808;DHT22;29438;50.664;10.098;2023-01-29T07:47:25;-3271.30;88.70
43808;DHT22;29438;50.664;10.098;2023-01-29T07:49:51;-3271.60;88.90
43808;DHT22;29438;50.664;10.098;2023-01-29T07:52:16;-3271.90;89.00
43808;DHT22;29438;50.664;10.098;2023-01-29T07:54:43;-3272.00;88.90
43808;DHT22;29438;50.664;10.098;2023-01-29T07:57:08;-3272.20;88.60
43808;DHT22;29438;50.664;10.098;2023-01-29T07:59:34;-3272.40;88.50
43808;DHT22;29438;50.664;10.098;2023-01-29T08:01:59;-3272.40;88.00
43808;DHT22;29438;50.664;10.098;2023-01-29T08:04:25;-3272.50;87.60
43808;DHT22;29438;50.664;10.098;2023-01-29T08:06:50;-3272.50;87.10
43808;DHT22;29438;50.664;10.098;2023-01-29T08:09:15;-3272.70;87.30
43808;DHT22;29438;50.664;10.098;2023-01-29T08:11:41;-3272.90;86.40
43808;DHT22;29438;50.664;10.098;2023-01-29T08:14:06;-3273.10;86.80
43808;DHT22;29438;50.664;10.098;2023-01-29T08:16:34;-3273.40;86.90
43808;DHT22;29438;50.664;10.098;2023-01-29T08:19:00;-3273.70;86.40
43808;DHT22;29438;50.664;10.098;2023-01-29T08:21:26;-3273.90;86.10
43808;DHT22;29438;50.664;10.098;2023-01-29T08:23:52;-3274.10;85.10
43808;DHT22;29438;50.664;10.098;2023-01-29T08:26:17;-3274.20;84.00
43808;DHT22;29438;50.664;10.098;2023-01-29T08:28:43;-3274.40;83.60
43808;DHT22;29438;50.664;10.098;2023-01-29T08:31:15;-3274.60;83.50
43808;DHT22;29438;50.664;10.098;2023-01-29T08:33:41;-3274.70;82.70
43808;DHT22;29438;50.664;10.098;2023-01-29T08:36:08;-3274.70;82.20
43808;DHT22;29438;50.664;10.098;2023-01-29T08:38:34;-3274.80;82.50
43808;DHT22;29438;50.664;10.098;2023-01-29T08:40:59;-3274.90;82.00
43808;DHT22;29438;50.664;10.098;2023-01-29T08:43:25;-3274.90;81.70
43808;DHT22;29438;50.664;10.098;2023-01-29T08:45:50;-3275.10;82.00
43808;DHT22;29438;50.664;10.098;2023-01-29T08:48:16;-3275.40;81.60
43808;DHT22;29438;50.664;10.098;2023-01-29T08:50:41;-3275.50;80.60
43808;DHT22;29438;50.664;10.098;2023-01-29T08:53:08;-3275.60;79.50
43808;DHT22;29438;50.664;10.098;2023-01-29T08:55:38;-3275.70;79.10
43808;DHT22;29438;50.664;10.098;2023-01-29T08:58:09;-3275.70;79.20
43808;DHT22;29438;50.664;10.098;2023-01-29T09:00:35;-3275.50;78.70
43808;DHT22;29438;50.664;10.098;2023-01-29T09:03:01;-3275.20;79.70
43808;DHT22;29438;50.664;10.098;2023-01-29T09:05:27;-3275.10;80.00
43808;DHT22;29438;50.664;10.098;2023-01-29T09:07:55;-3274.90;80.90
43808;DHT22;29438;50.664;10.098;2023-01-29T09:10:20;-3274.80;80.80
43808;DHT22;29438;50.664;10.098;2023-01-29T09:12:46;-3274.90;81.90
43808;DHT22;29438;50.664;10.098;2023-01-29T09:15:11;-3274.90;80.90
43808;DHT22;29438;50.664;10.098;2023-01-29T09:17:37;-3274.90;81.40
43808;DHT22;29438;50.664;10.098;2023-01-29T09:20:03;-3275.10;81.40
43808;DHT22;29438;50.664;10.098;2023-01-29T09:22:31;-3275.20;81.20
43808;DHT22;29438;50.664;10.098;2023-01-29T09:24:56;-3275.00;80.40
43808;DHT22;29438;50.664;10.098;2023-01-29T09:27:24;-3274.90;80.70
43808;DHT22;29438;50.664;10.098;2023-01-29T09:29:50;-3275.00;81.40
43808;DHT22;29438;50.664;10.098;2023-01-29T09:32:15;-3275.00;81.40
43808;DHT22;29438;50.664;10.098;2023-01-29T09:34:41;-3274.90;80.80
43808;DHT22;29438;50.664;10.098;2023-01-29T09:37:06;-3274.80;81.20
43808;DHT22;29438;50.664;10.098;2023-01-29T09:39:32;-3274.90;81.90
43808;DHT22;29438;50.664;10.098;2023-01-29T09:42:23;-3275.10;81.50
43808;DHT22;29438;50.664;10.098;2023-01-29T09:45:10;-3275.10;81.40
43808;DHT22;29438;50.664;10.098;2023-01-29T09:47:37;-3275.20;81.30
43808;DHT22;29438;50.664;10.098;2023-01-29T09:50:25;-3275.00;80.80
43808;DHT22;29438;50.664;10.098;2023-01-29T09:53:39;-3275.00;80.60
43808;DHT22;29438;50.664;10.098;2023-01-29T09:55:49;-3274.80;80.50
43808;DHT22;29438;50.664;10.098;2023-01-29T09:58:24;-3274.90;81.00
43808;DHT22;29438;50.664;10.098;2023-01-29T10:03:51;-3275.70;79.50
43808;DHT22;29438;50.664;10.098;2023-01-29T10:09:44;0.00;75.50
43808;DHT22;29438;50.664;10.098;2023-01-29T10:13:09;-3276.20;75.20
43808;DHT22;29438;50.664;10.098;2023-01-29T10:18:48;-3276.70;75.60
43808;DHT22;29438;50.664;10.098;2023-01-29T10:21:38;0.30;73.40
43808;DHT22;29438;50.664;10.098;2023-01-29T10:24:21;0.00;73.30
43808;DHT22;29438;50.664;10.098;2023-01-29T10:26:50;-3276.60;73.90
43808;DHT22;29438;50.664;10.098;2023-01-29T10:29:18;-3276.30;74.60
43808;DHT22;29438;50.664;10.098;2023-01-29T10:31:45;-3276.20;75.30
43808;DHT22;29438;50.664;10.098;2023-01-29T10:36:44;0.20;74.60
43808;DHT22;29438;50.664;10.098;2023-01-29T10:39:20;0.70;73.70
43808;DHT22;29438;50.664;10.098;2023-01-29T10:42:12;0.80;71.30
43808;DHT22;29438;50.664;10.098;2023-01-29T10:44:58;0.60;72.00
43808;DHT22;29438;50.664;10.098;2023-01-29T10:50:17;0.60;72.30
43808;DHT22;29438;50.664;10.098;2023-01-29T10:58:15;0.70;72.30
43808;DHT22;29438;50.664;10.098;2023-01-29T11:00:43;0.60;71.70
43808;DHT22;29438;50.664;10.098;2023-01-29T11:06:01;0.60;71.50
43808;DHT22;29438;50.664;10.098;2023-01-29T11:11:17;0.30;72.20
43808;DHT22;29438;50.664;10.098;2023-01-29T11:14:04;-3276.70;74.20
43808;DHT22;29438;50.664;10.098;2023-01-29T11:16:45;-3276.50;76.00
43808;DHT22;29438;50.664;10.098;2023-01-29T11:19:11;0.10;75.30
43808;DHT22;29438;50.664;10.098;2023-01-29T11:21:57;0.30;74.90
43808;DHT22;29438;50.664;10.098;2023-01-29T11:24:24;0.70;74.20
43808;DHT22;29438;50.664;10.098;2023-01-29T11:26:53;0.80;73.30
43808;DHT22;29438;50.664;10.098;2023-01-29T11:29:38;0.90;73.40
43808;DHT22;29438;50.664;10.098;2023-01-29T11:32:10;1.10;71.80
43808;DHT22;29438;50.664;10.098;2023-01-29T11:37:20;1.30;71.10
43808;DHT22;29438;50.664;10.098;2023-01-29T11:39:46;1.30;71.40
43808;DHT22;29438;50.664;10.098;2023-01-29T11:42:19;1.30;71.50
43808;DHT22;29438;50.664;10.098;2023-01-29T11:44:45;1.60;71.10
43808;DHT22;29438;50.664;10.098;2023-01-29T11:49:45;1.70;70.30
43808;DHT22;29438;50.664;10.098;2023-01-29T11:52:14;1.60;69.80
43808;DHT22;29438;50.664;10.098;2023-01-29T11:54:48;0.90;69.70
43808;DHT22;29438;50.664;10.098;2023-01-29T11:59:53;0.20;73.00
43808;DHT22;29438;50.664;10.098;2023-01-29T12:03:02;0.20;74.00
43808;DHT22;29438;50.664;10.098;2023-01-29T12:05:22;0.30;73.10
43808;DHT22;29438;50.664;10.098;2023-01-29T12:07:52;0.00;73.40
43808;DHT22;29438;50.664;10.098;2023-01-29T12:15:38;0.70;72.10
43808;DHT22;29438;50.664;10.098;2023-01-29T12:20:58;0.60;73.80
43808;DHT22;29438;50.664;10.098;2023-01-29T12:23:40;0.90;73.30
43808;DHT22;29438;50.664;10.098;2023-01-29T12:31:58;1.00;72.70
43808;DHT22;29438;50.664;10.098;2023-01-29T12:37:44;1.10;70.70
43808;DHT22;29438;50.664;10.098;2023-01-29T12:40:16;0.80;71.20
43808;DHT22;29438;50.664;10.098;2023-01-29T12:42:48;0.90;72.00
43808;DHT22;29438;50.664;10.098;2023-01-29T12:45:18;1.00;72.00
43808;DHT22;29438;50.664;10.098;2023-01-29T12:47:48;0.80;71.70
43808;DHT22;29438;50.664;10.098;2023-01-29T12:50:32;0.70;72.70
43808;DHT22;29438;50.664;10.098;2023-01-29T12:55:52;1.00;72.80
43808;DHT22;29438;50.664;10.098;2023-01-29T12:58:31;1.20;71.70
43808;DHT22;29438;50.664;10.098;2023-01-29T13:01:04;1.00;71.30
43808;DHT22;29438;50.664;10.098;2023-01-29T13:06:13;0.40;73.30
43808;DHT22;29438;50.664;10.098;2023-01-29T13:08:47;0.40;73.70
43808;DHT22;29438;50.664;10.098;2023-01-29T13:14:55;0.40;74.60
43808;DHT22;29438;50.664;10.098;2023-01-29T13:17:41;0.60;74.10
43808;DHT22;29438;50.664;10.098;2023-01-29T13:22:49;0.80;74.00
43808;DHT22;29438;50.664;10.098;2023-01-29T13:25:17;0.90;73.20
43808;DHT22;29438;50.664;10.098;2023-01-29T13:27:44;0.90;73.10
43808;DHT22;29438;50.664;10.098;2023-01-29T13:32:55;0.80;72.70
43808;DHT22;29438;50.664;10.098;2023-01-29T13:35:33;0.80;72.90
43808;DHT22;29438;50.664;10.098;2023-01-29T13:38:00;0.70;73.60
43808;DHT22;29438;50.664;10.098;2023-01-29T13:40:27;0.70;74.30
43808;DHT22;29438;50.664;10.098;2023-01-29T13:42:55;0.70;73.70
43808;DHT22;29438;50.664;10.098;2023-01-29T13:45:30;0.50;73.80
43808;DHT22;29438;50.664;10.098;2023-01-29T13:48:23;0.70;74.00
43808;DHT22;29438;50.664;10.098;2023-01-29T13:50:50;0.50;73.50
43808;DHT22;29438;50.664;10.098;2023-01-29T13:53:28;0.30;74.10
43808;DHT22;29438;50.664;10.098;2023-01-29T13:59:03;0.20;75.10
43808;DHT22;29438;50.664;10.098;2023-01-29T14:04:23;-3276.70;76.20
43808;DHT22;29438;50.664;10.098;2023-01-29T14:07:00;0.00;77.00
43808;DHT22;29438;50.664;10.098;2023-01-29T14:12:03;-3276.50;76.40
43808;DHT22;29438;50.664;10.098;2023-01-29T14:17:14;0.00;76.90
43808;DHT22;29438;50.664;10.098;2023-01-29T14:19:52;0.00;76.60
43808;DHT22;29438;50.664;10.098;2023-01-29T14:22:27;0.00;76.00
43808;DHT22;29438;50.664;10.098;2023-01-29T14:24:57;0.00;76.00
43808;DHT22;29438;50.664;10.098;2023-01-29T14:27:24;0.00;75.90
43808;DHT22;29438;50.664;10.098;2023-01-29T14:29:51;0.00;76.20
43808;DHT22;29438;50.664;10.098;2023-01-29T14:32:23;0.00;76.50
43808;DHT22;29438;50.664;10.098;2023-01-29T14:34:56;0.00;76.90
43808;DHT22;29438;50.664;10.098;2023-01-29T14:39:56;0.00;76.20
43808;DHT22;29438;50.664;10.098;2023-01-29T14:43:15;-3276.70;76.10
43808;DHT22;29438;50.664;10.098;2023-01-29T14:45:33;-3276.70;76.70
43808;DHT22;29438;50.664;10.098;2023-01-29T14:48:03;-3276.50;76.80
43808;DHT22;29438;50.664;10.098;2023-01-29T14:50:45;-3276.50;76.90
43808;DHT22;29438;50.664;10.098;2023-01-29T14:53:28;-3276.50;77.60
43808;DHT22;29438;50.664;10.098;2023-01-29T14:59:11;-3276.40;77.00
43808;DHT22;29438;50.664;10.098;2023-01-29T15:01:39;-3276.20;77.80
43808;DHT22;29438;50.664;10.098;2023-01-29T15:04:13;-3276.20;77.50
43808;DHT22;29438;50.664;10.098;2023-01-29T15:06:46;-3276.10;77.60
43808;DHT22;29438;50.664;10.098;2023-01-29T15:09:36;-3276.10;78.00
43808;DHT22;29438;50.664;10.098;2023-01-29T15:12:22;-3275.90;77.90
43808;DHT22;29438;50.664;10.098;2023-01-29T15:17:33;-3275.50;78.80
43808;DHT22;29438;50.664;10.098;2023-01-29T15:20:00;-3275.40;78.60
43808;DHT22;29438;50.664;10.098;2023-01-29T15:22:26;-3275.20;78.80
43808;DHT22;29438;50.664;10.098;2023-01-29T15:25:12;-3275.20;79.40
43808;DHT22;29438;50.664;10.098;2023-01-29T15:27:43;-3275.10;79.90
43808;DHT22;29438;50.664;10.098;2023-01-29T15:30:21;-3275.00;80.30
43808;DHT22;29438;50.664;10.098;2023-01-29T15:32:48;-3274.90;80.30
43808;DHT22;29438;50.664;10.098;2023-01-29T15:35:28;-3274.80;80.60
43808;DHT22;29438;50.664;10.098;2023-01-29T15:38:17;-3274.70;81.00
43808;DHT22;29438;50.664;10.098;2023-01-29T15:40:57;-3274.60;81.70
43808;DHT22;29438;50.664;10.098;2023-01-29T15:43:33;-3274.50;82.00
43808;DHT22;29438;50.664;10.098;2023-01-29T15:46:19;-3274.40;82.40
43808;DHT22;29438;50.664;10.098;2023-01-29T15:48:48;-3274.30;82.60
43808;DHT22;29438;50.664;10.098;2023-01-29T15:51:16;-3274.30;83.10
43808;DHT22;29438;50.664;10.098;2023-01-29T15:53:52;-3274.10;82.80
43808;DHT22;29438;50.664;10.098;2023-01-29T15:56:24;-3274.00;83.10
43808;DHT22;29438;50.664;10.098;2023-01-29T15:58:52;-3273.90;83.60
43808;DHT22;29438;50.664;10.098;2023-01-29T16:01:18;-3273.80;83.90
43808;DHT22;29438;50.664;10.098;2023-01-29T16:03:47;-3273.60;84.00
43808;DHT22;29438;50.664;10.098;2023-01-29T16:06:13;-3273.50;84.30
43808;DHT22;29438;50.664;10.098;2023-01-29T16:08:39;-3273.40;84.60
43808;DHT22;29438;50.664;10.098;2023-01-29T16:11:07;-3273.20;85.00
43808;DHT22;29438;50.664;10.098;2023-01-29T16:13:36;-3273.20;85.30
43808;DHT22;29438;50.664;10.098;2023-01-29T16:16:16;-3273.10;85.70
43808;DHT22;29438;50.664;10.098;2023-01-29T16:18:44;-3273.00;85.70
43808;DHT22;29438;50.664;10.098;2023-01-29T16:21:24;-3272.80;85.80
43808;DHT22;29438;50.664;10.098;2023-01-29T16:23:57;-3272.70;85.90
43808;DHT22;29438;50.664;10.098;2023-01-29T16:26:34;-3272.60;86.20
43808;DHT22;29438;50.664;10.098;2023-01-29T16:29:05;-3272.40;86.40
43808;DHT22;29438;50.664;10.098;2023-01-29T16:31:32;-3272.40;86.70
43808;DHT22;29438;50.664;10.098;2023-01-29T16:34:09;-3272.40;87.00
43808;DHT22;29438;50.664;10.098;2023-01-29T16:36:44;-3272.50;87.20
43808;DHT22;29438;50.664;10.098;2023-01-29T16:39:26;-3272.50;87.20
43808;DHT22;29438;50.664;10.098;2023-01-29T16:42:21;-3272.50;87.20
43808;DHT22;29438;50.664;10.098;2023-01-29T16:45:01;-3272.70;87.40
43808;DHT22;29438;50.664;10.098;2023-01-29T16:47:35;-3272.70;87.20
43808;DHT22;29438;50.664;10.098;2023-01-29T16:50:25;-3272.80;87.20
43808;DHT22;29438;50.664;10.098;2023-01-29T16:53:12;-3272.90;87.10
43808;DHT22;29438;50.664;10.098;2023-01-29T16:55:41;-3273.00;86.90
43808;DHT22;29438;50.664;10.098;2023-01-29T16:58:17;-3272.90;86.70
43808;DHT22;29438;50.664;10.098;2023-01-29T17:00:46;-3272.90;86.80
43808;DHT22;29438;50.664;10.098;2023-01-29T17:03:13;-3273.00;86.90
43808;DHT22;29438;50.664;10.098;2023-01-29T17:05:40;-3272.90;86.90
43808;DHT22;29438;50.664;10.098;2023-01-29T17:08:06;-3273.00;87.10
43808;DHT22;29438;50.664;10.098;2023-01-29T17:10:32;-3272.90;87.00
43808;DHT22;29438;50.664;10.098;2023-01-29T17:13:02;-3272.90;87.00
43808;DHT22;29438;50.664;10.098;2023-01-29T17:18:23;-3272.60;87.10
43808;DHT22;29438;50.664;10.098;2023-01-29T17:20:50;-3272.50;87.40
43808;DHT22;29438;50.664;10.098;2023-01-29T17:23:17;-3272.50;87.70